Time;durP1;ratioP1;P1;durP2;ratioP2;P2;SDS_P1;SDS_P2;PMS_P1;PMS_P2;Temp;Humidity;BMP_temperature;BMP_pressure;BME280_temperature;BME280_humidity;BME280_pressure;Samples;Min_cycle;Max_cycle;Signal;HPM_P1;HPM_P2
2023/02/25 00:02:01;;;;;;;10.97;10.40;;;19.60;57.50;;;;;;4937263;29;20453;-68
2023/02/25 00:04:30;;;;;;;11.53;11.07;;;19.60;57.60;;;;;;4937049;29;20564;-68
2023/02/25 00:06:56;;;;;;;10.90;10.50;;;19.50;57.40;;;;;;4937128;29;21106;-68
2023/02/25 00:09:23;;;;;;;11.47;10.97;;;19.50;57.50;;;;;;4936801;29;20538;-69
2023/02/25 00:11:50;;;;;;;10.70;10.40;;;19.50;57.50;;;;;;4937098;29;20545;-69
2023/02/25 00:14:17;;;;;;;11.37;10.50;;;19.50;57.40;;;;;;4936833;29;20480;-68
2023/02/25 00:16:44;;;;;;;11.00;10.70;;;19.50;57.40;;;;;;4936696;29;20509;-68
2023/02/25 00:19:11;;;;;;;11.07;10.57;;;19.50;57.40;;;;;;4936813;29;20489;-69
2023/02/25 00:21:40;;;;;;;11.43;11.03;;;19.40;57.40;;;;;;4936855;29;20477;-68
2023/02/25 00:24:07;;;;;;;11.13;10.83;;;19.40;57.30;;;;;;4936508;29;20533;-69
2023/02/25 00:26:34;;;;;;;11.40;10.93;;;19.40;57.30;;;;;;4936584;29;20564;-69
2023/02/25 00:29:01;;;;;;;11.37;11.00;;;19.50;57.30;;;;;;4936706;29;20541;-68
2023/02/25 00:31:28;;;;;;;12.17;11.33;;;19.40;57.30;;;;;;4936606;29;20547;-68
2023/02/25 00:33:54;;;;;;;10.80;10.40;;;19.40;57.30;;;;;;4936548;29;20477;-68
2023/02/25 00:36:23;;;;;;;11.73;11.23;;;19.40;57.20;;;;;;4936337;29;20501;-68
2023/02/25 00:38:53;;;;;;;12.67;12.07;;;19.40;57.20;;;;;;4936527;29;20528;-69
2023/02/25 00:41:23;;;;;;;10.53;10.23;;;19.40;57.20;;;;;;4936798;29;20536;-69
2023/02/25 00:43:52;;;;;;;10.87;10.40;;;19.40;57.20;;;;;;4935659;29;20536;-69
2023/02/25 00:46:19;;;;;;;10.90;10.60;;;19.40;57.30;;;;;;4936246;29;20561;-70
2023/02/25 00:48:46;;;;;;;10.83;10.03;;;19.30;57.20;;;;;;4936380;29;20540;-70
2023/02/25 00:51:16;;;;;;;10.77;10.40;;;19.30;57.20;;;;;;4936215;29;20485;-70
2023/02/25 00:53:43;;;;;;;11.10;10.67;;;19.30;57.20;;;;;;4936304;29;20521;-70
2023/02/25 00:56:14;;;;;;;10.37;9.93;;;19.30;57.10;;;;;;4935852;29;20497;-70
2023/02/25 00:58:43;;;;;;;10.90;10.60;;;19.30;57.20;;;;;;4936219;29;20996;-70
2023/02/25 01:01:18;;;;;;;10.30;10.00;;;19.30;57.30;;;;;;4936121;29;20585;-70
2023/02/25 01:03:44;;;;;;;10.40;10.10;;;19.20;57.30;;;;;;4935981;29;20477;-68
2023/02/25 01:06:12;;;;;;;10.00;9.57;;;19.20;57.30;;;;;;4935644;29;20521;-68
2023/02/25 01:08:38;;;;;;;10.60;10.20;;;19.20;57.30;;;;;;4936020;29;20525;-68
2023/02/25 01:11:14;;;;;;;10.30;10.00;;;19.20;57.40;;;;;;4936080;29;20536;-68
2023/02/25 01:13:41;;;;;;;10.53;10.23;;;19.20;57.40;;;;;;4935864;29;20936;-68
2023/02/25 01:16:13;;;;;;;10.20;9.80;;;19.10;57.20;;;;;;4935464;29;20534;-68
2023/02/25 01:18:40;;;;;;;9.97;9.57;;;19.20;57.20;;;;;;4935746;29;20957;-68
2023/02/25 01:21:08;;;;;;;10.13;9.83;;;19.10;57.00;;;;;;4935558;29;20576;-68
2023/02/25 01:23:34;;;;;;;10.60;10.20;;;19.10;57.10;;;;;;4935505;29;20489;-68
2023/02/25 01:26:04;;;;;;;10.33;10.03;;;19.10;57.00;;;;;;4935427;29;20586;-68
2023/02/25 01:28:32;;;;;;;10.10;9.80;;;19.00;57.00;;;;;;4935539;29;20452;-68
2023/02/25 01:30:59;;;;;;;11.07;10.67;;;19.00;57.00;;;;;;4935603;29;20791;-68
2023/02/25 01:33:26;;;;;;;11.07;10.60;;;19.00;57.00;;;;;;4935049;29;20563;-68
2023/02/25 01:35:53;;;;;;;10.20;9.90;;;19.00;57.00;;;;;;4935440;29;20504;-68
2023/02/25 01:38:20;;;;;;;11.20;10.80;;;19.00;57.00;;;;;;4935366;29;20536;-68
2023/02/25 01:40:47;;;;;;;9.47;9.27;;;19.00;57.00;;;;;;4935285;29;21068;-68
2023/02/25 01:43:17;;;;;;;9.80;9.50;;;19.00;57.00;;;;;;4935122;29;20454;-68
2023/02/25 01:45:46;;;;;;;10.70;10.40;;;19.00;57.00;;;;;;4935579;29;20474;-68
2023/02/25 01:48:16;;;;;;;10.60;10.30;;;19.00;57.00;;;;;;4935371;29;20532;-68
2023/02/25 01:50:50;;;;;;;10.70;10.30;;;19.00;57.00;;;;;;4935258;29;20540;-68
2023/02/25 01:53:23;;;;;;;11.60;11.00;;;19.00;57.00;;;;;;4934895;29;20458;-69
2023/02/25 01:55:50;;;;;;;11.23;10.83;;;19.00;57.00;;;;;;4934313;29;20556;-68
2023/02/25 01:58:18;;;;;;;10.47;10.20;;;19.00;56.90;;;;;;4935165;29;20537;-68
2023/02/25 02:00:46;;;;;;;10.10;9.80;;;19.00;56.80;;;;;;4934956;29;20572;-68
2023/02/25 02:03:15;;;;;;;11.60;11.20;;;19.00;56.90;;;;;;4934894;29;20536;-68
2023/02/25 02:05:59;;;;;;;10.40;10.03;;;19.00;56.80;;;;;;4934773;29;20497;-68
2023/02/25 02:08:26;;;;;;;10.97;10.50;;;19.00;56.80;;;;;;4934896;29;20533;-68
2023/02/25 02:10:55;;;;;;;10.27;10.00;;;19.00;56.80;;;;;;4934905;29;20469;-68
2023/02/25 02:13:22;;;;;;;10.60;10.30;;;19.00;56.80;;;;;;4934682;29;20544;-68
2023/02/25 02:15:59;;;;;;;10.57;10.20;;;18.90;56.80;;;;;;4934716;29;20556;-68
2023/02/25 02:18:29;;;;;;;12.20;11.70;;;18.90;56.70;;;;;;4934940;29;21037;-68
2023/02/25 02:21:08;;;;;;;10.00;9.80;;;18.90;56.80;;;;;;4934357;29;20568;-68
2023/02/25 02:24:03;;;;;;;10.63;10.30;;;18.90;56.70;;;;;;4934715;29;20878;-68
2023/02/25 02:26:47;;;;;;;11.00;10.50;;;18.90;56.70;;;;;;4934738;29;20985;-68
2023/02/25 02:29:40;;;;;;;10.60;10.30;;;18.90;56.70;;;;;;4934721;29;20504;-68
2023/02/25 02:32:16;;;;;;;11.50;11.20;;;18.90;56.80;;;;;;4933646;29;20512;-68
2023/02/25 02:34:51;;;;;;;10.67;10.47;;;18.80;56.80;;;;;;4934425;29;20457;-68
2023/02/25 02:37:29;;;;;;;10.97;10.60;;;18.80;56.80;;;;;;4934524;29;20500;-68
2023/02/25 02:40:14;;;;;;;11.27;10.80;;;18.80;56.80;;;;;;4934365;29;20523;-71
2023/02/25 02:42:49;;;;;;;10.70;10.40;;;18.80;56.90;;;;;;4934388;29;20976;-71
2023/02/25 02:45:21;;;;;;;10.70;10.43;;;18.70;56.80;;;;;;4934358;29;20488;-71
2023/02/25 02:47:53;;;;;;;11.07;10.40;;;18.70;56.90;;;;;;4934504;29;20546;-68
2023/02/25 02:50:26;;;;;;;11.23;10.73;;;18.70;56.80;;;;;;4934222;29;20474;-68
2023/02/25 02:52:58;;;;;;;11.40;10.80;;;18.70;56.80;;;;;;4934470;29;20532;-68
2023/02/25 02:55:30;;;;;;;10.33;10.03;;;18.70;56.80;;;;;;4934116;29;20488;-70
2023/02/25 02:58:03;;;;;;;11.87;11.50;;;18.70;56.70;;;;;;4934326;29;21168;-70
2023/02/25 03:00:37;;;;;;;10.50;10.20;;;18.70;56.70;;;;;;4934059;29;20524;-70
2023/02/25 03:03:10;;;;;;;10.60;10.30;;;18.70;56.70;;;;;;4934558;29;20532;-70
2023/02/25 03:05:41;;;;;;;10.63;10.23;;;18.70;56.60;;;;;;4934610;29;20540;-70
2023/02/25 03:08:14;;;;;;;11.00;10.50;;;18.70;56.50;;;;;;4938772;29;20536;-70
2023/02/25 03:10:41;;;;;;;10.37;9.87;;;18.70;56.50;;;;;;4938119;29;20544;-70
2023/02/25 03:13:08;;;;;;;10.10;9.90;;;18.70;56.50;;;;;;4938084;29;20453;-71
2023/02/25 03:15:38;;;;;;;10.20;9.90;;;18.70;56.50;;;;;;4937924;29;20535;-70
2023/02/25 03:18:15;;;;;;;12.27;11.60;;;18.70;56.50;;;;;;4938069;29;20500;-70
2023/02/25 03:20:48;;;;;;;9.70;9.50;;;18.70;56.50;;;;;;4938137;29;20485;-70
2023/02/25 03:23:18;;;;;;;9.50;9.27;;;18.70;56.50;;;;;;4937995;29;20453;-70
2023/02/25 03:25:49;;;;;;;10.00;9.70;;;18.70;56.50;;;;;;4937864;29;20569;-70
2023/02/25 03:28:25;;;;;;;10.93;10.53;;;18.70;56.50;;;;;;4937811;29;20472;-70
2023/02/25 03:30:58;;;;;;;10.40;10.10;;;18.70;56.50;;;;;;4937712;29;20528;-70
2023/02/25 03:33:31;;;;;;;10.50;10.20;;;18.60;56.40;;;;;;4937486;29;20883;-70
2023/02/25 03:36:01;;;;;;;10.27;9.97;;;18.60;56.70;;;;;;4937635;29;20548;-71
2023/02/25 03:38:32;;;;;;;10.57;10.10;;;18.70;56.70;;;;;;4937988;29;20533;-70
2023/02/25 03:41:02;;;;;;;10.70;10.40;;;18.60;56.30;;;;;;4937418;29;20834;-70
2023/02/25 03:43:33;;;;;;;10.20;9.90;;;18.60;56.30;;;;;;4937437;29;20488;-71
2023/02/25 03:46:02;;;;;;;10.60;10.30;;;18.60;56.30;;;;;;4937506;29;20581;-71
2023/02/25 03:48:32;;;;;;;10.80;10.20;;;18.60;56.30;;;;;;4937373;29;20489;-70
2023/02/25 03:51:00;;;;;;;10.70;10.10;;;18.60;56.20;;;;;;4937308;29;20532;-70
2023/02/25 03:53:29;;;;;;;10.50;10.10;;;18.60;56.30;;;;;;4937112;29;20485;-71
2023/02/25 03:55:57;;;;;;;10.30;10.03;;;18.60;56.30;;;;;;4937306;29;20502;-70
2023/02/25 03:58:24;;;;;;;10.50;10.20;;;18.60;56.30;;;;;;4937162;29;20492;-70
2023/02/25 04:00:56;;;;;;;10.70;10.40;;;18.60;56.20;;;;;;4937404;29;20489;-71
2023/02/25 04:03:23;;;;;;;10.37;10.10;;;18.60;56.20;;;;;;4936991;29;20483;-70
2023/02/25 04:05:51;;;;;;;11.10;10.80;;;18.60;56.20;;;;;;4937103;29;20512;-70
2023/02/25 04:08:19;;;;;;;9.90;9.70;;;18.60;56.10;;;;;;4937163;29;20485;-71
2023/02/25 04:10:46;;;;;;;11.03;10.73;;;18.60;56.10;;;;;;4936933;29;20493;-71
2023/02/25 04:13:15;;;;;;;10.80;10.40;;;18.60;56.10;;;;;;4936929;29;20960;-71
2023/02/25 04:15:43;;;;;;;10.20;9.90;;;18.50;56.10;;;;;;4936953;29;20565;-71
2023/02/25 04:18:09;;;;;;;10.40;10.10;;;18.50;56.10;;;;;;4935783;29;20481;-70
2023/02/25 04:20:37;;;;;;;10.20;9.87;;;18.50;56.10;;;;;;4936598;29;20568;-71
2023/02/25 04:23:05;;;;;;;9.90;9.60;;;18.50;56.10;;;;;;4936765;29;20449;-71
2023/02/25 04:25:32;;;;;;;9.63;9.43;;;18.50;56.00;;;;;;4936562;29;20536;-71
2023/02/25 04:28:00;;;;;;;10.07;9.77;;;18.50;56.00;;;;;;4936613;29;20545;-71
2023/02/25 04:30:26;;;;;;;10.40;10.00;;;18.50;56.00;;;;;;4936681;29;20537;-71
2023/02/25 04:32:53;;;;;;;11.17;10.60;;;18.50;56.10;;;;;;4936653;29;20537;-71
2023/02/25 04:35:20;;;;;;;10.23;9.70;;;18.40;56.00;;;;;;4936539;29;20858;-71
2023/02/25 04:37:47;;;;;;;10.43;10.13;;;18.50;56.10;;;;;;4936457;29;20835;-71
2023/02/25 04:40:19;;;;;;;9.60;9.30;;;18.50;56.10;;;;;;4936480;29;20528;-71
2023/02/25 04:42:46;;;;;;;10.53;10.23;;;18.50;56.20;;;;;;4936343;29;20988;-71
2023/02/25 04:45:14;;;;;;;11.10;10.80;;;18.40;56.10;;;;;;4936355;29;20941;-71
2023/02/25 04:47:42;;;;;;;11.20;10.80;;;18.50;56.20;;;;;;4936032;29;20548;-71
2023/02/25 04:50:11;;;;;;;10.23;9.53;;;18.40;56.10;;;;;;4936366;29;20485;-71
2023/02/25 04:52:38;;;;;;;9.90;9.57;;;18.50;56.10;;;;;;4936341;29;20543;-72
2023/02/25 04:55:06;;;;;;;10.27;9.97;;;18.50;56.20;;;;;;4936121;29;20638;-71
2023/02/25 04:57:35;;;;;;;10.23;9.93;;;18.40;56.10;;;;;;4936194;29;20505;-68
2023/02/25 05:00:09;;;;;;;11.00;10.67;;;18.50;56.30;;;;;;4936295;29;20536;-69
2023/02/25 05:02:36;;;;;;;10.97;10.57;;;18.50;56.30;;;;;;4936062;29;20541;-71
2023/02/25 05:05:03;;;;;;;11.20;10.80;;;18.50;56.60;;;;;;4936201;29;20488;-71
2023/02/25 05:07:29;;;;;;;11.40;11.00;;;18.50;56.80;;;;;;4935889;29;20524;-71
2023/02/25 05:09:57;;;;;;;10.90;10.50;;;18.50;57.10;;;;;;4935989;29;20541;-75
2023/02/25 05:12:24;;;;;;;10.93;10.57;;;18.50;57.50;;;;;;4936140;29;20829;-73
2023/02/25 05:14:52;;;;;;;11.00;10.43;;;18.60;57.80;;;;;;4935923;29;20537;-75
2023/02/25 05:17:19;;;;;;;12.20;11.70;;;18.60;57.90;;;;;;4935617;29;20510;-65
2023/02/25 05:19:45;;;;;;;11.10;10.63;;;18.60;58.60;;;;;;4936029;29;20536;-67
2023/02/25 05:22:12;;;;;;;11.83;11.40;;;18.70;58.20;;;;;;4935972;29;20581;-65
2023/02/25 05:24:39;;;;;;;10.97;10.67;;;18.70;58.20;;;;;;4935590;29;20536;-65
2023/02/25 05:27:08;;;;;;;11.07;10.77;;;18.80;58.20;;;;;;4935463;29;20896;-65
2023/02/25 05:29:35;;;;;;;10.60;10.30;;;18.90;58.20;;;;;;4935617;29;20470;-64
2023/02/25 05:32:04;;;;;;;12.03;11.73;;;19.00;58.20;;;;;;4935504;29;20446;-67
2023/02/25 05:34:30;;;;;;;11.37;11.07;;;19.10;58.00;;;;;;4935684;29;20536;-64
2023/02/25 05:36:57;;;;;;;12.17;11.67;;;19.10;57.80;;;;;;4935630;29;20473;-65
2023/02/25 05:39:24;;;;;;;11.27;10.93;;;19.20;57.60;;;;;;4935651;29;20493;-63
2023/02/25 05:41:51;;;;;;;11.90;11.30;;;19.30;57.50;;;;;;4935617;29;20568;-67
2023/02/25 05:44:18;;;;;;;10.73;10.53;;;19.30;57.20;;;;;;4935365;29;20817;-65
2023/02/25 05:46:46;;;;;;;11.93;11.43;;;19.30;57.00;;;;;;4935023;29;20481;-64
2023/02/25 05:49:14;;;;;;;10.83;10.53;;;19.40;56.90;;;;;;4935693;29;20549;-65
2023/02/25 05:51:41;;;;;;;10.90;10.60;;;19.40;57.00;;;;;;4936719;29;20497;-64
2023/02/25 05:54:08;;;;;;;10.77;10.47;;;19.50;56.70;;;;;;4942844;29;20485;-65
2023/02/25 05:56:35;;;;;;;10.43;10.23;;;19.50;57.00;;;;;;4943993;29;20501;-65
2023/02/25 05:59:02;;;;;;;11.17;10.47;;;19.60;56.30;;;;;;4943716;29;20476;-65
2023/02/25 06:01:30;;;;;;;11.47;11.00;;;19.60;56.00;;;;;;4943979;29;20528;-65
2023/02/25 06:03:58;;;;;;;11.63;11.20;;;19.60;55.80;;;;;;4944391;29;20449;-65
2023/02/25 06:06:28;;;;;;;12.60;11.90;;;19.70;55.80;;;;;;4944375;29;20477;-65
2023/02/25 06:08:55;;;;;;;12.90;11.93;;;19.70;55.90;;;;;;4935231;29;20937;-65
2023/02/25 06:11:23;;;;;;;12.67;12.03;;;19.70;56.30;;;;;;4935061;29;20484;-65
2023/02/25 06:13:52;;;;;;;13.93;13.03;;;19.70;57.00;;;;;;4934602;29;20536;-66
2023/02/25 06:16:19;;;;;;;14.37;13.10;;;19.80;57.60;;;;;;4934956;29;20553;-66
2023/02/25 06:18:47;;;;;;;15.60;14.20;;;19.80;58.80;;;;;;4934822;29;20525;-64
2023/02/25 06:21:15;;;;;;;15.43;14.07;;;19.80;59.80;;;;;;4934634;29;20521;-64
2023/02/25 06:23:44;;;;;;;15.33;13.20;;;19.80;60.60;;;;;;4934447;29;20524;-64
2023/02/25 06:26:13;;;;;;;14.60;13.53;;;19.80;61.40;;;;;;4934414;29;20560;-64
2023/02/25 06:28:40;;;;;;;13.27;12.47;;;19.80;61.70;;;;;;4934782;29;20536;-64
2023/02/25 06:31:08;;;;;;;13.40;12.70;;;19.80;61.80;;;;;;4934480;29;20549;-64
2023/02/25 06:33:35;;;;;;;14.50;13.37;;;19.70;62.00;;;;;;4934178;29;20476;-65
2023/02/25 06:36:03;;;;;;;14.17;13.07;;;19.70;62.20;;;;;;4934556;29;20552;-64
2023/02/25 06:38:31;;;;;;;12.33;11.53;;;19.80;62.20;;;;;;4934595;29;20536;-65
2023/02/25 06:40:59;;;;;;;12.97;12.17;;;19.80;62.30;;;;;;4933902;29;20533;-65
2023/02/25 06:43:27;;;;;;;13.53;12.23;;;19.80;62.50;;;;;;4936044;29;20445;-67
2023/02/25 06:45:54;;;;;;;13.50;12.60;;;19.90;62.30;;;;;;4936834;29;20977;-66
2023/02/25 06:48:21;;;;;;;15.30;14.33;;;19.90;62.00;;;;;;4937484;29;20481;-67
2023/02/25 06:50:49;;;;;;;14.50;13.50;;;20.00;61.50;;;;;;4936310;29;20985;-67
2023/02/25 06:53:16;;;;;;;13.73;12.93;;;20.00;61.10;;;;;;4936869;29;20488;-68
2023/02/25 06:55:42;;;;;;;13.53;13.00;;;20.00;60.90;;;;;;4936810;29;20505;-67
2023/02/25 06:58:11;;;;;;;13.10;12.20;;;20.00;60.80;;;;;;4936621;29;20536;-68
2023/02/25 07:00:41;;;;;;;12.23;11.17;;;20.10;60.70;;;;;;4935141;29;20479;-70
2023/02/25 07:03:10;;;;;;;14.20;12.90;;;20.10;60.60;;;;;;4915764;29;20497;-71
2023/02/25 07:05:37;;;;;;;12.30;11.50;;;20.20;60.50;;;;;;4915444;29;20542;-68
2023/02/25 07:08:04;;;;;;;12.60;11.90;;;20.20;60.50;;;;;;4915586;29;20541;-68
2023/02/25 07:10:32;;;;;;;13.63;12.63;;;20.20;60.30;;;;;;4915982;29;20533;-66
2023/02/25 07:12:58;;;;;;;13.83;12.93;;;20.20;60.10;;;;;;4933476;29;21012;-64
2023/02/25 07:15:27;;;;;;;13.93;13.10;;;20.20;59.90;;;;;;4934230;29;20485;-67
2023/02/25 07:17:54;;;;;;;11.80;11.40;;;20.30;59.90;;;;;;4934736;29;20488;-66
2023/02/25 07:20:20;;;;;;;12.30;11.57;;;20.30;59.80;;;;;;4934254;29;20533;-67
2023/02/25 07:22:47;;;;;;;11.60;11.20;;;20.30;59.70;;;;;;4933836;29;20662;-68
2023/02/25 07:25:14;;;;;;;11.77;11.27;;;20.30;59.60;;;;;;4934078;29;20533;-65
2023/02/25 07:27:42;;;;;;;14.00;13.00;;;20.30;59.60;;;;;;4934438;29;20508;-68
2023/02/25 07:30:11;;;;;;;12.53;12.03;;;20.40;59.50;;;;;;4934206;29;20528;-68
2023/02/25 07:32:39;;;;;;;12.87;11.90;;;20.40;59.40;;;;;;4933983;29;20457;-68
2023/02/25 07:35:07;;;;;;;13.27;12.77;;;20.40;59.30;;;;;;4933935;29;20516;-65
2023/02/25 07:37:34;;;;;;;13.73;12.97;;;20.30;59.20;;;;;;4933970;29;20541;-66
2023/02/25 07:40:02;;;;;;;13.40;12.83;;;20.30;59.20;;;;;;4933858;29;20458;-66
2023/02/25 07:42:30;;;;;;;13.87;12.80;;;20.20;59.20;;;;;;4933852;29;20544;-65
2023/02/25 07:44:57;;;;;;;14.40;13.70;;;20.20;59.20;;;;;;4933704;29;20458;-66
2023/02/25 07:47:24;;;;;;;13.07;12.57;;;20.20;59.70;;;;;;4934821;29;20501;-65
2023/02/25 07:49:52;;;;;;;13.50;13.00;;;20.20;59.50;;;;;;4935405;29;20477;-61
2023/02/25 07:52:19;;;;;;;13.87;13.17;;;20.20;59.40;;;;;;4936982;29;20739;-57
2023/02/25 07:54:46;;;;;;;13.00;12.60;;;20.20;59.40;;;;;;4938652;29;20445;-60
2023/02/25 07:57:12;;;;;;;12.73;12.13;;;20.30;59.40;;;;;;4937620;29;20501;-65
2023/02/25 07:59:39;;;;;;;14.10;13.20;;;20.30;59.30;;;;;;4937152;29;20493;-63
2023/02/25 08:02:09;;;;;;;13.90;13.00;;;20.30;59.10;;;;;;4937801;29;21100;-68
2023/02/25 08:04:36;;;;;;;13.40;12.90;;;20.40;59.00;;;;;;4939266;29;20453;-65
2023/02/25 08:07:04;;;;;;;14.07;13.10;;;20.40;59.30;;;;;;4939625;29;20519;-65
2023/02/25 08:09:31;;;;;;;15.67;14.20;;;20.40;58.80;;;;;;4938849;29;20456;-63
2023/02/25 08:11:58;;;;;;;15.37;14.53;;;20.40;58.60;;;;;;4938947;29;20537;-64
2023/02/25 08:14:25;;;;;;;15.10;13.90;;;20.40;58.60;;;;;;4938857;29;20477;-65
2023/02/25 08:16:55;;;;;;;14.53;13.90;;;20.40;58.40;;;;;;4938918;29;20533;-65
2023/02/25 08:19:22;;;;;;;14.07;13.57;;;20.40;58.30;;;;;;4938824;29;20492;-63
2023/02/25 08:21:49;;;;;;;14.27;13.67;;;20.40;58.30;;;;;;4938676;29;20577;-65
2023/02/25 08:24:19;;;;;;;13.80;13.00;;;20.40;58.20;;;;;;4937726;29;20493;-64
2023/02/25 08:26:46;;;;;;;13.57;12.77;;;20.40;58.10;;;;;;4937583;29;20500;-63
2023/02/25 08:29:13;;;;;;;18.00;14.10;;;20.40;57.90;;;;;;4937812;29;20544;-65
2023/02/25 08:31:40;;;;;;;14.80;14.10;;;20.50;57.90;;;;;;4937842;29;20453;-65
2023/02/25 08:34:07;;;;;;;14.90;14.37;;;20.50;58.50;;;;;;4938027;29;20533;-62
2023/02/25 08:36:35;;;;;;;12.97;12.43;;;20.50;58.20;;;;;;4938116;29;20508;-64
2023/02/25 08:39:02;;;;;;;15.47;14.73;;;20.50;58.10;;;;;;4938661;29;20453;-63
2023/02/25 08:41:30;;;;;;;13.10;12.50;;;20.60;58.10;;;;;;4938983;29;20449;-64
2023/02/25 08:43:59;;;;;;;14.43;13.90;;;20.60;57.90;;;;;;4939254;29;20450;-64
2023/02/25 08:46:27;;;;;;;13.43;12.83;;;20.60;57.80;;;;;;4939167;29;20474;-64
2023/02/25 08:48:55;;;;;;;13.50;12.90;;;20.60;57.90;;;;;;4938032;29;20482;-64
2023/02/25 08:51:32;;;;;;;11.52;10.93;;;20.70;57.60;;;;;;4937516;29;20477;-65
2023/02/25 08:53:59;;;;;;;14.33;13.73;;;20.70;57.70;;;;;;4938409;29;20205;-65
2023/02/25 08:56:25;;;;;;;15.30;14.40;;;20.70;57.30;;;;;;4938124;29;20493;-66
2023/02/25 08:58:54;;;;;;;13.47;12.97;;;20.80;57.20;;;;;;4938201;29;20504;-63
2023/02/25 09:01:21;;;;;;;14.57;13.47;;;20.80;57.90;;;;;;4937953;29;20481;-63
2023/02/25 09:03:51;;;;;;;12.07;11.47;;;20.80;57.40;;;;;;4937334;29;20489;-65
2023/02/25 09:06:18;;;;;;;14.03;12.87;;;20.80;57.20;;;;;;4938726;29;20481;-61
2023/02/25 09:08:45;;;;;;;13.70;13.20;;;20.70;55.90;;;;;;4937696;29;20493;-62
2023/02/25 09:11:12;;;;;;;12.70;11.87;;;20.70;56.60;;;;;;4938006;29;20485;-58
2023/02/25 09:13:39;;;;;;;12.50;12.00;;;20.80;56.80;;;;;;4938029;29;20530;-60
2023/02/25 09:16:08;;;;;;;13.60;13.10;;;20.80;56.90;;;;;;4937446;29;20553;-65
2023/02/25 09:18:35;;;;;;;12.47;12.07;;;20.80;57.00;;;;;;4937480;29;20477;-61
2023/02/25 09:21:02;;;;;;;12.40;11.70;;;20.90;57.00;;;;;;4938257;29;20481;-61
2023/02/25 09:23:28;;;;;;;14.23;13.40;;;20.90;56.80;;;;;;4938336;29;20488;-61
2023/02/25 09:25:55;;;;;;;12.90;12.30;;;21.00;56.60;;;;;;4937629;29;20556;-61
2023/02/25 09:28:22;;;;;;;12.70;12.10;;;21.00;56.20;;;;;;4937948;29;20486;-62
2023/02/25 09:30:49;;;;;;;12.00;11.60;;;21.00;55.90;;;;;;4938028;29;20865;-61
2023/02/25 09:33:17;;;;;;;13.13;12.63;;;21.10;55.70;;;;;;4937686;29;20473;-61
2023/02/25 09:35:44;;;;;;;12.00;11.60;;;21.10;55.50;;;;;;4937405;29;20473;-61
2023/02/25 09:38:11;;;;;;;12.00;11.40;;;21.10;55.20;;;;;;4937545;29;20896;-62
2023/02/25 09:40:40;;;;;;;11.93;11.63;;;21.10;55.00;;;;;;4938188;29;20536;-62
2023/02/25 09:43:20;;;;;;;12.80;12.40;;;21.20;54.80;;;;;;4937502;29;20485;-62
2023/02/25 09:45:49;;;;;;;12.10;11.53;;;21.20;54.70;;;;;;4933675;29;20503;-59
2023/02/25 09:48:24;;;;;;;10.87;10.47;;;21.20;54.60;;;;;;4936966;29;20446;-62
2023/02/25 09:50:54;;;;;;;12.10;11.80;;;21.20;54.50;;;;;;4937597;29;20452;-62
2023/02/25 09:53:26;;;;;;;11.83;11.43;;;21.20;54.40;;;;;;4936936;29;20482;-60
2023/02/25 09:55:54;;;;;;;13.27;12.97;;;21.20;54.40;;;;;;4937573;29;20472;-62
2023/02/25 09:58:26;;;;;;;12.70;12.40;;;21.20;54.40;;;;;;4937344;29;20457;-62
2023/02/25 10:01:03;;;;;;;12.37;11.97;;;21.10;54.50;;;;;;4937330;29;20492;-62
2023/02/25 10:03:53;;;;;;;11.70;11.30;;;21.10;54.50;;;;;;4937025;29;20477;-61
2023/02/25 10:06:27;;;;;;;13.03;12.53;;;21.10;54.60;;;;;;4937497;29;20520;-61
2023/02/25 10:09:04;;;;;;;12.50;12.00;;;21.00;54.50;;;;;;4937704;29;20481;-62
2023/02/25 10:11:42;;;;;;;11.90;11.50;;;21.00;54.60;;;;;;4937309;29;20453;-61
2023/02/25 10:14:31;;;;;;;12.57;12.17;;;20.90;54.60;;;;;;4936925;29;20888;-61
2023/02/25 10:17:07;;;;;;;12.43;11.93;;;20.90;54.60;;;;;;4932524;29;20996;-61
2023/02/25 10:19:52;;;;;;;13.17;12.77;;;20.90;54.70;;;;;;4937733;29;20877;-62
2023/02/25 10:22:30;;;;;;;11.70;11.40;;;20.90;54.70;;;;;;4937214;29;20567;-63
2023/02/25 10:25:02;;;;;;;11.30;11.00;;;20.90;54.60;;;;;;4936765;29;20489;-63
2023/02/25 10:27:32;;;;;;;11.27;10.87;;;20.90;54.60;;;;;;4936327;29;20490;-63
2023/02/25 10:30:04;;;;;;;11.70;11.20;;;20.90;54.50;;;;;;4937395;29;20485;-63
2023/02/25 10:32:34;;;;;;;12.87;12.37;;;20.90;54.50;;;;;;4936737;29;20446;-60
2023/02/25 10:35:13;;;;;;;11.47;11.07;;;20.90;54.50;;;;;;4936039;29;20513;-62
2023/02/25 10:37:40;;;;;;;11.50;11.10;;;20.90;54.40;;;;;;4936775;29;21015;-62
2023/02/25 10:40:13;;;;;;;11.73;11.33;;;20.80;54.30;;;;;;4936638;29;20499;-62
2023/02/25 10:42:44;;;;;;;11.70;11.30;;;20.80;54.40;;;;;;4936148;29;21095;-61
2023/02/25 10:45:13;;;;;;;9.82;9.45;;;20.80;54.60;;;;;;4935087;29;20453;-60
2023/02/25 10:47:42;;;;;;;11.90;11.40;;;20.80;55.00;;;;;;4936595;29;20237;-62
2023/02/25 10:50:25;;;;;;;11.60;11.30;;;21.00;55.20;;;;;;4936702;29;20485;-60
2023/02/25 10:52:54;;;;;;;11.23;10.90;;;21.10;55.30;;;;;;4936586;29;20548;-60
2023/02/25 10:55:50;;;;;;;11.73;11.23;;;21.10;55.30;;;;;;4936126;29;20821;-61
2023/02/25 10:58:32;;;;;;;11.47;11.03;;;21.10;55.20;;;;;;4936238;29;20461;-60
2023/02/25 11:01:03;;;;;;;12.43;12.00;;;21.20;55.30;;;;;;4936562;29;20542;-60
2023/02/25 11:03:32;;;;;;;10.60;10.30;;;21.20;55.30;;;;;;4936686;29;20481;-61
2023/02/25 11:06:16;;;;;;;13.17;12.87;;;21.20;55.30;;;;;;4936244;29;20524;-61
2023/02/25 11:08:44;;;;;;;12.60;12.20;;;21.20;55.50;;;;;;4935570;29;20454;-62
2023/02/25 11:11:16;;;;;;;12.70;12.30;;;21.20;56.00;;;;;;4935205;29;20449;-62
2023/02/25 11:13:44;;;;;;;12.60;12.00;;;21.30;56.30;;;;;;4934669;29;20460;-61
2023/02/25 11:16:13;;;;;;;11.70;11.40;;;21.30;56.40;;;;;;4935108;29;21034;-65
2023/02/25 11:18:41;;;;;;;12.00;11.70;;;21.30;56.40;;;;;;4935493;29;20480;-65
2023/02/25 11:21:11;;;;;;;13.20;12.80;;;21.30;56.10;;;;;;4935640;29;20481;-65
2023/02/25 11:23:45;;;;;;;13.53;13.03;;;21.30;55.90;;;;;;4935037;29;20489;-64
2023/02/25 11:26:17;;;;;;;12.30;12.00;;;21.30;55.80;;;;;;4935483;29;20993;-64
2023/02/25 11:28:46;;;;;;;12.40;11.77;;;21.30;55.80;;;;;;4939087;29;20488;-64
2023/02/25 11:31:19;;;;;;;13.50;12.90;;;21.40;55.70;;;;;;4939476;29;20488;-63
2023/02/25 11:33:52;;;;;;;12.10;11.80;;;21.40;56.40;;;;;;4939380;29;20504;-63
2023/02/25 11:36:29;;;;;;;13.00;12.60;;;21.40;56.40;;;;;;4938836;29;20513;-61
2023/02/25 11:39:07;;;;;;;10.40;10.00;;;21.40;56.50;;;;;;4938211;29;20870;-64
2023/02/25 11:41:34;;;;;;;13.88;13.38;;;21.40;56.20;;;;;;4938798;29;20484;-62
2023/02/25 11:44:20;;;;;;;10.63;10.13;;;21.50;56.20;;;;;;4938352;29;20552;-62
2023/02/25 11:46:55;;;;;;;13.30;12.60;;;21.60;56.40;;;;;;4939831;29;20269;-63
2023/02/25 11:49:30;;;;;;;10.30;9.80;;;21.70;56.80;;;;;;4937803;29;20445;-60
2023/02/25 11:52:06;;;;;;;11.77;11.27;;;21.70;56.40;;;;;;4938024;29;20240;-60
2023/02/25 11:54:40;;;;;;;12.43;12.03;;;21.80;56.80;;;;;;4938663;29;20441;-62
2023/02/25 11:57:12;;;;;;;13.43;12.70;;;21.80;56.80;;;;;;4938124;29;20544;-61
2023/02/25 11:59:46;;;;;;;12.83;12.40;;;21.80;57.30;;;;;;4938837;29;20481;-61
2023/02/25 12:02:32;;;;;;;12.13;11.73;;;21.80;58.00;;;;;;4938681;29;20453;-63
2023/02/25 12:05:28;;;;;;;12.20;11.63;;;21.70;58.00;;;;;;4938698;29;20481;-59
2023/02/25 12:08:09;;;;;;;10.20;9.70;;;21.80;58.20;;;;;;4936171;29;20524;-62
2023/02/25 12:11:24;;;;;;;11.60;11.20;;;21.80;58.20;;;;;;4937086;29;20441;-61
2023/02/25 12:14:18;;;;;;;11.97;11.27;;;21.80;58.70;;;;;;4938203;29;20473;-64
2023/02/25 12:17:13;;;;;;;11.80;11.23;;;21.90;58.20;;;;;;4939169;29;20500;-65
2023/02/25 12:20:21;;;;;;;11.47;11.07;;;21.80;57.60;;;;;;4938660;29;20525;-61
2023/02/25 12:23:24;;;;;;;11.20;10.90;;;21.80;57.70;;;;;;4919687;29;20470;-65
2023/02/25 12:26:02;;;;;;;11.90;11.50;;;21.80;57.50;;;;;;4899742;29;20497;-64
2023/02/25 12:28:56;;;;;;;11.27;10.87;;;21.80;57.30;;;;;;4918073;29;20814;-64
2023/02/25 12:32:01;;;;;;;12.07;11.60;;;21.80;57.20;;;;;;4922151;29;20528;-66
2023/02/25 12:34:52;;;;;;;12.37;12.03;;;21.80;57.10;;;;;;4936954;29;20540;-63
2023/02/25 12:37:36;;;;;;;11.50;10.93;;;21.80;57.10;;;;;;4936608;29;20505;-61
2023/02/25 12:40:19;;;;;;;11.40;11.10;;;21.80;57.20;;;;;;4935884;29;20532;-62
2023/02/25 12:43:05;;;;;;;11.23;10.93;;;21.90;57.20;;;;;;4936381;29;20540;-60
2023/02/25 12:45:51;;;;;;;12.10;11.70;;;21.90;57.20;;;;;;4936181;29;20497;-60
2023/02/25 12:48:47;;;;;;;12.47;12.07;;;21.90;57.20;;;;;;4936391;29;20481;-62